createdAt,value
2019-06-07T00:02:16.353Z,6.50
2019-06-07T00:06:24.376Z,6.40
2019-06-07T00:10:35.977Z,6.83
2019-06-07T00:14:32.069Z,6.30
2019-06-07T00:18:36.627Z,7.13
2019-06-07T00:22:41.189Z,6.23
2019-06-07T00:26:57.793Z,5.90
2019-06-07T00:30:52.768Z,6.60
2019-06-07T00:34:57.461Z,6.83
2019-06-07T00:39:02.083Z,6.20
2019-06-07T00:43:06.698Z,6.53
2019-06-07T00:47:13.012Z,5.70
2019-06-07T00:51:19.023Z,6.07
2019-06-07T00:55:27.498Z,6.20
2019-06-07T00:59:29.952Z,6.83
2019-06-07T01:03:34.585Z,7.35
2019-06-07T01:07:39.211Z,7.17
2019-06-07T01:11:43.724Z,7.00
2019-06-07T01:15:48.295Z,6.53
2019-06-07T01:19:55.645Z,7.27
2019-06-07T01:24:11.339Z,7.17
2019-06-07T01:28:06.441Z,5.95
2019-06-07T01:32:11.007Z,6.37
2019-06-07T01:36:17.892Z,6.50
2019-06-07T01:40:28.857Z,7.13
2019-06-07T01:44:31.206Z,7.17
2019-06-07T01:48:49.144Z,6.90
2019-06-07T01:52:41.187Z,6.40
2019-06-07T01:56:45.866Z,7.53
2019-06-07T02:00:50.511Z,8.00
2019-06-07T02:04:55.077Z,7.00
2019-06-07T02:08:59.644Z,7.12
2019-06-07T02:13:04.172Z,7.53
2019-06-07T02:17:08.743Z,7.43
2019-06-07T02:21:13.332Z,7.67
2019-06-07T02:25:37.056Z,7.75
2019-06-07T02:29:25.470Z,7.40
2019-06-07T02:33:37.368Z,7.57
2019-06-07T02:37:37.389Z,7.87
2019-06-07T02:41:42.314Z,8.90
2019-06-07T02:45:46.879Z,7.97
2019-06-07T02:49:51.433Z,8.00
2019-06-07T02:53:55.980Z,9.30
2019-06-07T02:58:00.566Z,9.90
2019-06-07T03:02:05.264Z,9.93
2019-06-07T03:06:11.178Z,9.73
2019-06-07T03:10:15.926Z,12.28
2019-06-07T03:14:22.661Z,11.47
2019-06-07T03:18:44.787Z,11.80
2019-06-07T03:22:51.218Z,12.18
2019-06-07T03:31:03.380Z,10.93
2019-06-07T03:35:08.221Z,11.45
2019-06-07T03:39:12.853Z,11.15
2019-06-07T03:43:17.432Z,11.83
2019-06-07T03:47:21.988Z,11.63
2019-06-07T03:51:27.378Z,12.67
2019-06-07T03:55:37.786Z,12.83
2019-06-07T03:59:41.407Z,11.13
2019-06-07T04:03:51.299Z,11.80
2019-06-07T04:07:51.590Z,11.50
2019-06-07T04:11:56.173Z,13.03
2019-06-07T04:16:00.705Z,13.20
2019-06-07T04:20:05.504Z,13.33
2019-06-07T04:24:10.088Z,12.20
2019-06-07T04:28:14.652Z,12.60
2019-06-07T04:32:19.243Z,12.43
2019-06-07T04:36:44.200Z,12.53
2019-06-07T04:40:32.304Z,12.90
2019-06-07T04:44:42.206Z,14.13
2019-06-07T04:48:46.468Z,13.20
2019-06-07T04:52:51.029Z,14.13
2019-06-07T04:56:55.560Z,14.63
2019-06-07T05:01:03.462Z,14.40
2019-06-07T05:05:07.168Z,13.57
2019-06-07T05:09:11.733Z,13.40
2019-06-07T05:13:16.296Z,12.43
2019-06-07T05:17:20.970Z,13.20
2019-06-07T05:21:25.500Z,13.23
2019-06-07T05:25:31.727Z,13.70
2019-06-07T05:29:37.239Z,10.93
2019-06-07T05:33:43.526Z,9.30
2019-06-07T05:37:48.317Z,8.30
2019-06-07T05:41:52.881Z,7.30
2019-06-07T05:45:57.453Z,7.10
2019-06-07T05:50:02.291Z,7.13
2019-06-07T05:54:07.039Z,7.00
2019-06-07T05:58:11.602Z,7.20
2019-06-07T06:02:22.611Z,7.33
2019-06-07T06:06:22.392Z,6.80
2019-06-07T06:10:26.957Z,6.20
2019-06-07T06:14:31.516Z,6.47
2019-06-07T06:18:36.047Z,6.78
2019-06-07T06:22:44.788Z,6.23
2019-06-07T06:26:54.080Z,6.03
2019-06-07T06:30:53.256Z,5.30
2019-06-07T06:34:57.818Z,5.30
2019-06-07T06:39:02.321Z,5.23
2019-06-07T06:43:06.867Z,4.93
2019-06-07T06:47:11.436Z,4.43
2019-06-07T06:51:16.032Z,3.57
2019-06-07T06:55:20.807Z,4.30
2019-06-07T06:59:38.758Z,3.27
2019-06-07T07:03:56.510Z,3.50
2019-06-07T07:07:37.923Z,3.53
2019-06-07T07:11:56.290Z,2.70
2019-06-07T07:15:55.103Z,3.60
2019-06-07T07:19:55.646Z,3.43
2019-06-07T07:24:20.241Z,3.60
2019-06-07T07:28:07.381Z,3.27
2019-06-07T07:32:11.938Z,3.10
2019-06-07T07:36:37.555Z,2.87
2019-06-07T07:44:29.495Z,2.63
2019-06-07T07:48:34.069Z,2.40
2019-06-07T07:52:38.634Z,3.10
2019-06-07T07:56:45.326Z,2.37
2019-06-07T08:00:53.904Z,2.53
2019-06-07T08:09:01.811Z,3.20
2019-06-07T08:13:23.630Z,3.33
2019-06-07T08:17:12.597Z,2.90
2019-06-07T08:21:25.832Z,3.03
2019-06-07T08:25:23.883Z,3.33
2019-06-07T08:29:44.531Z,3.23
2019-06-07T08:33:34.680Z,3.20
2019-06-07T08:38:14.703Z,3.60
2019-06-07T08:41:59.332Z,3.07
2019-06-07T08:45:58.516Z,3.13
2019-06-07T08:50:04.382Z,2.80
2019-06-07T08:54:21.787Z,3.10
2019-06-07T08:58:10.640Z,3.10
2019-06-07T09:02:23.847Z,3.67
2019-06-07T09:07:01.937Z,3.07
2019-06-07T09:10:27.623Z,3.30
2019-06-07T09:14:32.207Z,3.87
2019-06-07T09:18:46.489Z,3.27
2019-06-07T09:22:51.164Z,3.17
2019-06-07T09:27:00.241Z,3.30
2019-06-07T09:31:09.859Z,2.83
2019-06-07T09:35:16.604Z,3.10
2019-06-07T09:39:17.114Z,2.50
2019-06-07T09:47:32.236Z,3.13
2019-06-07T09:51:34.080Z,2.80
2019-06-07T09:55:38.670Z,3.00
2019-06-07T09:59:43.256Z,2.30
2019-06-07T10:03:47.884Z,2.77
2019-06-07T10:08:04.117Z,2.67
2019-06-07T10:11:58.691Z,2.60
2019-06-07T10:16:03.254Z,2.60
2019-06-07T10:20:09.746Z,2.30
2019-06-07T10:24:15.438Z,3.33
2019-06-07T10:28:19.995Z,2.57
2019-06-07T10:32:24.554Z,2.13
2019-06-07T10:36:29.156Z,2.47
2019-06-07T10:40:33.740Z,2.47
2019-06-07T10:44:38.278Z,2.37
2019-06-07T10:48:42.949Z,2.13
2019-06-07T10:52:47.693Z,1.77
2019-06-07T10:56:52.264Z,1.90
2019-06-07T11:00:56.844Z,1.83
2019-06-07T11:05:01.449Z,1.80
2019-06-07T11:09:08.407Z,1.93
2019-06-07T11:13:16.061Z,2.10
2019-06-07T11:17:20.645Z,1.70
2019-06-07T11:21:25.207Z,2.00
2019-06-07T11:25:29.755Z,1.70
2019-06-07T11:29:34.321Z,2.20
2019-06-07T11:33:39.025Z,2.13
2019-06-07T11:37:43.689Z,1.50
2019-06-07T11:41:48.682Z,2.33
2019-06-07T11:45:53.218Z,1.93
2019-06-07T11:49:57.813Z,1.87
2019-06-07T11:54:02.543Z,2.37
2019-06-07T11:58:11.118Z,2.30
2019-06-07T12:02:13.468Z,2.90
2019-06-07T12:06:18.168Z,2.00
2019-06-07T12:10:23.280Z,1.67
2019-06-07T12:14:27.968Z,2.07
2019-06-07T12:18:32.533Z,1.80
2019-06-07T12:22:37.110Z,2.07
2019-06-07T12:26:44.933Z,1.63
2019-06-07T12:30:49.513Z,1.80
2019-06-07T12:34:54.100Z,1.87
2019-06-07T12:38:58.690Z,2.03
2019-06-07T12:43:03.296Z,2.10
2019-06-07T12:47:07.835Z,2.23
2019-06-07T12:51:13.161Z,1.67
2019-06-07T12:55:20.285Z,1.87
2019-06-07T12:59:24.612Z,2.20
2019-06-07T13:03:29.325Z,1.97
2019-06-07T13:07:33.897Z,2.53
2019-06-07T13:11:38.460Z,2.40
2019-06-07T13:15:43.038Z,2.27
2019-06-07T13:19:47.635Z,2.40
2019-06-07T13:23:52.172Z,2.23
2019-06-07T13:27:56.775Z,2.30
2019-06-07T13:32:01.367Z,2.70
2019-06-07T13:36:05.980Z,2.30
2019-06-07T13:40:10.870Z,2.87
2019-06-07T13:44:16.700Z,2.87
2019-06-07T13:48:21.489Z,2.60
2019-06-07T13:52:26.033Z,2.90
2019-06-07T13:56:30.602Z,2.77
2019-06-07T14:00:35.133Z,2.57
2019-06-07T14:04:39.803Z,3.30
2019-06-07T14:08:44.368Z,2.87
2019-06-07T14:12:49.062Z,2.63
2019-06-07T14:16:53.942Z,2.60
2019-06-07T14:20:59.066Z,2.13
2019-06-07T14:25:03.750Z,2.63
2019-06-07T14:29:08.379Z,2.43
2019-06-07T14:33:13.000Z,2.37
2019-06-07T14:37:17.637Z,2.07
2019-06-07T14:41:23.171Z,2.30
2019-06-07T14:45:28.202Z,2.80
2019-06-07T14:49:32.970Z,2.50
2019-06-07T14:53:39.014Z,2.30
2019-06-07T14:57:43.707Z,1.97
2019-06-07T15:01:48.365Z,1.93
2019-06-07T15:05:53.020Z,2.10
2019-06-07T15:09:58.477Z,2.00
2019-06-07T15:14:06.046Z,1.97
2019-06-07T15:18:11.393Z,1.87
2019-06-07T15:22:15.973Z,1.83
2019-06-07T15:26:20.579Z,2.57
2019-06-07T15:30:25.288Z,1.87
2019-06-07T15:34:30.514Z,2.37
2019-06-07T15:38:35.157Z,2.20
2019-06-07T15:42:49.766Z,2.23
2019-06-07T15:46:45.996Z,2.20
2019-06-07T15:50:50.537Z,2.40
2019-06-07T15:54:55.124Z,2.47
2019-06-07T15:58:59.709Z,2.63
2019-06-07T16:03:04.284Z,2.40
2019-06-07T16:07:08.838Z,2.73
2019-06-07T16:11:13.388Z,2.77
2019-06-07T16:15:18.737Z,2.40
2019-06-07T16:19:23.379Z,2.60
2019-06-07T16:23:33.677Z,2.17
2019-06-07T16:27:38.694Z,2.80
2019-06-07T16:31:43.248Z,2.47
2019-06-07T16:35:47.791Z,3.00
2019-06-07T16:39:52.333Z,2.37
2019-06-07T16:43:56.930Z,2.50
2019-06-07T16:48:01.436Z,2.83
2019-06-07T16:52:06.174Z,2.50
2019-06-07T16:56:10.721Z,2.70
2019-06-07T17:00:15.994Z,3.00
2019-06-07T17:04:21.445Z,2.80
2019-06-07T17:08:30.155Z,2.80
2019-06-07T17:12:38.323Z,3.10
2019-06-07T17:16:45.857Z,2.83
2019-06-07T17:20:50.418Z,2.77
2019-06-07T17:24:54.961Z,3.37
2019-06-07T17:28:59.463Z,3.10
2019-06-07T17:33:04.005Z,3.10
2019-06-07T17:37:08.548Z,3.23
2019-06-07T17:41:13.096Z,3.40
2019-06-07T17:45:17.952Z,3.20
2019-06-07T17:49:22.457Z,3.80
2019-06-07T17:53:30.439Z,3.80
2019-06-07T17:57:33.216Z,3.50
2019-06-07T18:01:41.585Z,3.93
2019-06-07T18:05:45.133Z,3.63
2019-06-07T18:09:49.722Z,3.80
2019-06-07T18:14:09.424Z,4.13
2019-06-07T18:18:00.473Z,3.60
2019-06-07T18:22:05.021Z,3.90
2019-06-07T18:26:09.540Z,4.03
2019-06-07T18:30:14.106Z,3.70
2019-06-07T18:34:18.651Z,4.17
2019-06-07T18:38:23.197Z,3.63
2019-06-07T18:42:27.740Z,3.80
2019-06-07T18:46:32.253Z,4.40
2019-06-07T18:50:36.885Z,4.57
2019-06-07T18:54:41.440Z,4.47
2019-06-07T18:58:47.142Z,4.40
2019-06-07T19:02:51.990Z,4.30
2019-06-07T19:06:56.548Z,5.17
2019-06-07T19:11:01.109Z,3.30
2019-06-07T19:15:07.005Z,3.40
2019-06-07T19:19:11.620Z,2.03
2019-06-07T19:23:17.301Z,3.00
2019-06-07T19:27:21.833Z,2.37
2019-06-07T19:31:26.392Z,1.83
2019-06-07T19:35:30.936Z,2.13
2019-06-07T19:39:35.492Z,2.33
2019-06-07T19:43:40.201Z,2.50
2019-06-07T19:47:52.469Z,3.00
2019-06-07T19:51:57.086Z,3.33
2019-06-07T19:56:01.616Z,3.13
2019-06-07T20:00:13.681Z,3.20
2019-06-07T20:04:13.573Z,3.13
2019-06-07T20:08:18.093Z,4.20
2019-06-07T20:12:22.647Z,3.80
2019-06-07T20:16:27.204Z,4.00
2019-06-07T20:20:31.745Z,3.17
2019-06-07T20:24:38.166Z,2.60
2019-06-07T20:28:42.505Z,2.90
2019-06-07T20:32:47.056Z,3.27
2019-06-07T20:36:51.611Z,2.83
2019-06-07T20:40:56.976Z,2.73
2019-06-07T20:45:02.149Z,1.90
2019-06-07T20:49:06.784Z,1.30
2019-06-07T20:53:11.341Z,1.50
2019-06-07T20:57:15.905Z,1.97
2019-06-07T21:01:20.465Z,1.73
2019-06-07T21:05:25.041Z,1.60
2019-06-07T21:09:29.604Z,1.40
2019-06-07T21:13:34.172Z,1.60
2019-06-07T21:17:38.916Z,1.57
2019-06-07T21:21:43.628Z,1.67
2019-06-07T21:25:48.149Z,1.50
2019-06-07T21:29:52.717Z,1.50
2019-06-07T21:33:57.273Z,1.30
2019-06-07T21:38:01.956Z,1.37
2019-06-07T21:42:06.573Z,1.50
2019-06-07T21:46:17.308Z,1.50
2019-06-07T21:50:17.585Z,1.40
2019-06-07T21:54:22.147Z,1.10
2019-06-07T21:58:26.708Z,1.60
2019-06-07T22:02:31.267Z,1.00
2019-06-07T22:06:35.828Z,0.93
2019-06-07T22:10:40.393Z,1.00
2019-06-07T22:14:44.973Z,1.20
2019-06-07T22:18:49.541Z,1.20
2019-06-07T22:22:54.057Z,1.27
2019-06-07T22:26:58.632Z,1.20
2019-06-07T22:31:03.238Z,1.03
2019-06-07T22:35:08.951Z,0.97
2019-06-07T22:39:13.970Z,1.20
2019-06-07T22:43:19.230Z,1.10
2019-06-07T22:47:23.860Z,0.90
2019-06-07T22:51:28.409Z,0.63
2019-06-07T22:55:32.996Z,0.97
2019-06-07T22:59:37.549Z,0.70
2019-06-07T23:03:42.373Z,0.93
2019-06-07T23:07:46.891Z,0.93
2019-06-07T23:11:51.448Z,0.70
2019-06-07T23:15:56.013Z,0.70
2019-06-07T23:20:00.578Z,0.70
2019-06-07T23:24:05.245Z,0.60
2019-06-07T23:28:10.256Z,0.80
2019-06-07T23:32:14.839Z,0.80
2019-06-07T23:36:19.397Z,0.80
2019-06-07T23:40:23.945Z,0.77
2019-06-07T23:44:28.517Z,1.07
2019-06-07T23:48:33.032Z,1.00
2019-06-07T23:52:37.580Z,0.80
2019-06-07T23:56:42.143Z,0.67
